createdAt,value
2019-03-02T00:00:13.243Z,2.83
2019-03-02T00:02:41.679Z,2.30
2019-03-02T00:05:10.132Z,3.20
2019-03-02T00:07:38.533Z,2.90
2019-03-02T00:10:09.954Z,2.80
2019-03-02T00:12:39.055Z,2.53
2019-03-02T00:15:09.042Z,3.30
2019-03-02T00:17:37.459Z,3.10
2019-03-02T00:20:06.728Z,3.20
2019-03-02T00:22:35.135Z,2.80
2019-03-02T00:25:04.445Z,2.50
2019-03-02T00:27:32.927Z,2.20
2019-03-02T00:30:01.350Z,2.93
2019-03-02T00:32:29.848Z,3.20
2019-03-02T00:34:58.291Z,2.92
2019-03-02T00:37:29.688Z,2.67
2019-03-02T00:39:57.147Z,2.77
2019-03-02T00:42:25.558Z,2.70
2019-03-02T00:44:53.979Z,2.23
2019-03-02T00:47:22.422Z,2.80
2019-03-02T00:49:50.858Z,2.93
2019-03-02T00:52:20.492Z,2.70
2019-03-02T00:54:57.765Z,2.90
2019-03-02T00:57:19.715Z,2.90
2019-03-02T00:59:48.193Z,2.75
2019-03-02T01:02:16.616Z,2.67
2019-03-02T01:04:45.062Z,2.67
2019-03-02T01:07:13.499Z,2.67
2019-03-02T01:09:43.617Z,2.53
2019-03-02T01:12:12.135Z,2.90
2019-03-02T01:14:40.599Z,2.70
2019-03-02T01:17:09.006Z,2.90
2019-03-02T01:19:37.441Z,2.70
2019-03-02T01:22:05.855Z,2.03
2019-03-02T01:24:35.672Z,3.30
2019-03-02T01:27:04.510Z,2.53
2019-03-02T01:29:32.942Z,2.47
2019-03-02T01:32:01.354Z,2.17
2019-03-02T01:34:29.771Z,2.30
2019-03-02T01:36:58.215Z,2.20
2019-03-02T01:39:29.241Z,2.70
2019-03-02T01:41:56.766Z,2.57
2019-03-02T01:44:25.211Z,2.05
2019-03-02T01:46:53.814Z,2.77
2019-03-02T01:49:22.252Z,2.10
2019-03-02T01:51:50.770Z,2.70
2019-03-02T01:54:21.340Z,3.57
2019-03-02T01:56:49.359Z,2.90
2019-03-02T01:59:17.790Z,3.50
2019-03-02T02:01:46.198Z,3.27
2019-03-02T02:04:14.624Z,2.63
2019-03-02T02:06:43.681Z,2.17
2019-03-02T02:09:12.327Z,2.50
2019-03-02T02:11:41.032Z,2.67
2019-03-02T02:14:09.463Z,2.70
2019-03-02T02:16:38.814Z,2.63
2019-03-02T02:19:08.071Z,2.97
2019-03-02T02:21:36.505Z,2.60
2019-03-02T02:24:05.476Z,2.60
2019-03-02T02:26:33.925Z,2.90
2019-03-02T02:29:04.564Z,2.93
2019-03-02T02:31:32.484Z,2.53
2019-03-02T02:34:00.935Z,3.20
2019-03-02T02:36:29.358Z,2.70
2019-03-02T02:38:57.792Z,2.93
2019-03-02T02:41:26.266Z,2.67
2019-03-02T02:43:59.016Z,2.30
2019-03-02T02:46:27.311Z,2.80
2019-03-02T02:48:55.003Z,2.87
2019-03-02T02:51:23.420Z,2.70
2019-03-02T02:53:51.840Z,2.17
2019-03-02T02:56:21.434Z,2.90
2019-03-02T02:58:55.673Z,2.53
2019-03-02T03:01:20.198Z,3.23
2019-03-02T03:03:48.886Z,2.77
2019-03-02T03:06:17.319Z,3.87
2019-03-02T03:08:45.794Z,3.17
2019-03-02T03:11:14.248Z,3.20
2019-03-02T03:13:42.721Z,2.83
2019-03-02T03:16:16.023Z,3.17
2019-03-02T03:18:41.539Z,3.40
2019-03-02T03:21:10.523Z,2.80
2019-03-02T03:23:39.016Z,4.50
2019-03-02T03:26:07.439Z,3.40
2019-03-02T03:28:35.873Z,2.95
2019-03-02T03:31:04.380Z,3.77
2019-03-02T03:33:41.424Z,3.50
2019-03-02T03:36:02.994Z,2.93
2019-03-02T03:38:31.435Z,3.30
2019-03-02T03:41:04.683Z,2.83
2019-03-02T03:43:30.204Z,3.37
2019-03-02T03:45:58.687Z,3.10
2019-03-02T03:48:27.119Z,4.47
2019-03-02T03:50:55.640Z,3.43
2019-03-02T03:53:26.527Z,3.50
2019-03-02T03:55:54.247Z,3.00
2019-03-02T03:58:22.658Z,3.03
2019-03-02T04:00:51.083Z,3.73
2019-03-02T04:03:19.555Z,3.50
2019-03-02T04:05:48.747Z,3.27
2019-03-02T04:08:17.253Z,3.50
2019-03-02T04:10:45.686Z,3.20
2019-03-02T04:13:14.080Z,3.87
2019-03-02T04:15:43.562Z,3.10
2019-03-02T04:18:34.489Z,3.20
2019-03-02T04:21:02.913Z,3.90
2019-03-02T04:23:31.382Z,3.20
2019-03-02T04:25:59.798Z,3.80
2019-03-02T04:28:31.375Z,3.23
2019-03-02T04:30:58.353Z,3.50
2019-03-02T04:33:26.757Z,3.60
2019-03-02T04:35:55.184Z,3.93
2019-03-02T04:38:23.618Z,3.27
2019-03-02T04:40:52.031Z,3.80
2019-03-02T04:43:20.453Z,3.53
2019-03-02T04:45:48.860Z,3.23
2019-03-02T04:48:17.296Z,3.50
2019-03-02T04:50:45.695Z,4.07
2019-03-02T04:53:14.140Z,3.90
2019-03-02T04:55:45.745Z,3.57
2019-03-02T04:58:13.014Z,3.58
2019-03-02T05:00:41.502Z,3.83
2019-03-02T05:03:09.928Z,3.60
2019-03-02T05:05:40.612Z,3.33
2019-03-02T05:08:08.721Z,2.90
2019-03-02T05:10:37.144Z,3.00
2019-03-02T05:13:05.548Z,3.47
2019-03-02T05:15:33.976Z,3.27
2019-03-02T05:18:02.387Z,3.70
2019-03-02T05:20:32.566Z,3.27
2019-03-02T05:23:06.921Z,3.07
2019-03-02T05:25:35.358Z,3.33
2019-03-02T05:28:07.292Z,3.72
2019-03-02T05:30:34.395Z,3.50
2019-03-02T05:33:02.793Z,3.50
2019-03-02T05:35:31.224Z,3.27
2019-03-02T05:37:59.673Z,3.33
2019-03-02T05:40:28.884Z,3.20
2019-03-02T05:42:57.356Z,3.10
2019-03-02T05:45:25.793Z,2.90
2019-03-02T05:47:54.196Z,3.63
2019-03-02T05:50:22.641Z,3.00
2019-03-02T05:52:54.208Z,3.00
2019-03-02T05:55:21.177Z,3.10
2019-03-02T05:57:49.572Z,2.77
2019-03-02T06:00:19.984Z,3.50
2019-03-02T06:02:48.848Z,3.20
2019-03-02T06:05:17.282Z,2.73
2019-03-02T06:07:45.686Z,2.93
2019-03-02T06:10:14.964Z,3.03
2019-03-02T06:12:43.468Z,2.90
2019-03-02T06:15:13.998Z,2.90
2019-03-02T06:17:42.497Z,2.90
2019-03-02T06:20:12.722Z,3.13
2019-03-02T06:22:41.192Z,3.33
2019-03-02T06:25:20.252Z,3.57
2019-03-02T06:27:47.278Z,3.00
2019-03-02T06:30:19.380Z,2.90
2019-03-02T06:32:47.812Z,2.80
2019-03-02T06:35:16.202Z,2.53
2019-03-02T06:37:44.688Z,2.87
2019-03-02T06:40:16.223Z,3.70
2019-03-02T06:42:45.648Z,3.83
2019-03-02T06:45:15.612Z,3.20
2019-03-02T06:47:44.345Z,3.50
2019-03-02T06:50:17.528Z,3.10
2019-03-02T06:52:46.219Z,3.40
2019-03-02T06:55:15.733Z,3.50
2019-03-02T06:57:46.215Z,2.73
2019-03-02T07:00:16.533Z,3.33
2019-03-02T07:02:44.966Z,2.93
2019-03-02T07:05:13.541Z,3.30
2019-03-02T07:07:41.973Z,3.40
2019-03-02T07:10:13.113Z,2.70
2019-03-02T07:12:41.744Z,3.33
2019-03-02T07:15:13.370Z,3.20
2019-03-02T07:17:46.453Z,3.63
2019-03-02T07:20:23.820Z,3.33
2019-03-02T07:22:52.612Z,2.77
2019-03-02T07:25:21.668Z,3.67
2019-03-02T07:27:50.170Z,3.30
2019-03-02T07:30:18.586Z,3.10
2019-03-02T07:32:47.010Z,2.90
2019-03-02T07:35:15.854Z,3.53
2019-03-02T07:37:45.574Z,2.87
2019-03-02T07:40:14.076Z,3.03
2019-03-02T07:42:42.480Z,2.97
2019-03-02T07:45:19.093Z,3.63
2019-03-02T07:47:47.503Z,3.47
2019-03-02T07:50:16.296Z,3.30
2019-03-02T07:52:44.934Z,3.07
2019-03-02T07:55:14.861Z,3.57
2019-03-02T07:57:44.731Z,3.70
2019-03-02T08:00:20.668Z,4.00
2019-03-02T08:02:49.104Z,3.77
2019-03-02T08:05:17.557Z,3.23
2019-03-02T08:07:46.233Z,3.10
2019-03-02T08:10:14.746Z,3.90
2019-03-02T08:12:43.144Z,2.80
2019-03-02T08:15:14.350Z,2.97
2019-03-02T08:17:45.583Z,3.23
2019-03-02T08:20:16.569Z,3.27
2019-03-02T08:22:46.229Z,3.37
2019-03-02T08:25:15.427Z,4.00
2019-03-02T08:27:44.629Z,2.87
2019-03-02T08:30:15.274Z,4.10
2019-03-02T08:32:43.692Z,3.93
2019-03-02T08:35:13.954Z,3.57
2019-03-02T08:37:42.533Z,3.50
2019-03-02T08:40:19.418Z,3.03
2019-03-02T08:42:45.946Z,3.47
2019-03-02T08:45:20.668Z,3.83
2019-03-02T08:47:49.243Z,3.43
2019-03-02T08:50:19.657Z,3.20
2019-03-02T08:52:48.295Z,3.17
2019-03-02T08:55:21.783Z,3.30
2019-03-02T08:57:50.246Z,3.30
2019-03-02T09:00:25.421Z,3.20
2019-03-02T09:02:55.048Z,3.53
2019-03-02T09:05:42.936Z,3.60
2019-03-02T09:07:54.416Z,2.57
2019-03-02T09:10:23.058Z,2.60
2019-03-02T09:12:51.557Z,3.10
2019-03-02T09:15:30.162Z,3.07
2019-03-02T09:17:58.708Z,2.72
2019-03-02T09:20:27.129Z,3.13
2019-03-02T09:23:00.595Z,3.20
2019-03-02T09:25:27.762Z,3.23
2019-03-02T09:27:56.043Z,3.47
2019-03-02T09:30:24.452Z,3.97
2019-03-02T09:32:54.592Z,4.13
2019-03-02T09:35:23.044Z,3.93
2019-03-02T09:37:51.587Z,3.30
2019-03-02T09:40:21.453Z,3.60
2019-03-02T09:42:50.136Z,2.93
2019-03-02T09:45:21.849Z,3.80
2019-03-02T09:47:52.034Z,2.97
2019-03-02T09:50:24.220Z,2.87
2019-03-02T09:52:52.740Z,3.30
2019-03-02T09:55:21.276Z,2.80
2019-03-02T09:57:49.909Z,2.37
2019-03-02T10:00:23.846Z,1.83
2019-03-02T10:02:53.009Z,2.23
2019-03-02T10:05:21.440Z,2.30
2019-03-02T10:07:49.850Z,1.80
2019-03-02T10:10:18.913Z,2.00
2019-03-02T10:12:51.447Z,2.10
2019-03-02T10:15:26.607Z,1.90
2019-03-02T10:17:55.114Z,2.20
2019-03-02T10:20:23.550Z,2.00
2019-03-02T10:22:51.952Z,1.93
2019-03-02T10:25:20.362Z,1.93
2019-03-02T10:27:48.785Z,1.80
2019-03-02T10:30:22.119Z,2.10
2019-03-02T10:32:51.914Z,2.70
2019-03-02T10:35:21.548Z,2.47
2019-03-02T10:37:49.973Z,1.90
2019-03-02T10:40:22.826Z,1.70
2019-03-02T10:42:50.633Z,2.15
2019-03-02T10:45:20.011Z,2.20
2019-03-02T10:47:48.476Z,2.60
2019-03-02T10:50:25.795Z,2.60
2019-03-02T10:52:54.288Z,2.60
2019-03-02T10:55:23.560Z,3.00
2019-03-02T10:57:52.301Z,3.30
2019-03-02T11:00:31.426Z,3.23
2019-03-02T11:03:12.038Z,2.90
2019-03-02T11:05:42.237Z,2.70
2019-03-02T11:08:29.044Z,3.13
2019-03-02T11:11:08.184Z,3.07
2019-03-02T11:13:41.159Z,2.90
2019-03-02T11:16:25.782Z,4.23
2019-03-02T11:19:07.883Z,2.90
2019-03-02T11:21:39.172Z,2.73
2019-03-02T11:24:23.766Z,2.73
2019-03-02T11:26:59.380Z,2.53
2019-03-02T11:29:31.930Z,2.90
2019-03-02T11:32:20.372Z,5.43
2019-03-02T11:35:10.385Z,5.60
2019-03-02T11:37:42.238Z,5.73
2019-03-02T11:40:12.301Z,5.33
2019-03-02T11:43:00.414Z,4.70
2019-03-02T11:45:39.321Z,5.17
2019-03-02T11:48:17.279Z,4.47
2019-03-02T11:50:50.764Z,4.53
2019-03-02T11:53:18.760Z,4.50
2019-03-02T11:55:48.810Z,4.47
2019-03-02T11:58:36.843Z,5.87
2019-03-02T12:01:22.959Z,4.30
2019-03-02T12:04:05.121Z,4.23
2019-03-02T12:06:51.302Z,3.97
2019-03-02T12:09:21.360Z,4.93
2019-03-02T12:11:54.120Z,3.70
2019-03-02T12:14:30.033Z,4.13
2019-03-02T12:17:04.040Z,4.30
2019-03-02T12:19:34.335Z,3.83
2019-03-02T12:22:04.496Z,3.70
2019-03-02T12:24:43.278Z,3.67
2019-03-02T12:27:14.912Z,4.07
2019-03-02T12:29:46.098Z,4.43
2019-03-02T12:32:28.785Z,3.40
2019-03-02T12:35:01.294Z,2.60
2019-03-02T12:37:35.436Z,3.50
2019-03-02T12:40:08.838Z,2.47
2019-03-02T12:42:41.895Z,3.63
2019-03-02T12:45:29.994Z,3.30
2019-03-02T12:48:08.490Z,2.10
2019-03-02T12:50:44.727Z,3.90
2019-03-02T12:53:33.028Z,4.40
2019-03-02T12:56:06.251Z,2.70
2019-03-02T12:58:42.213Z,3.30
2019-03-02T13:01:12.257Z,3.10
2019-03-02T13:03:58.431Z,2.97
2019-03-02T13:06:32.222Z,3.13
2019-03-02T13:09:05.550Z,3.00
2019-03-02T13:11:38.073Z,2.50
2019-03-02T13:14:10.980Z,3.33
2019-03-02T13:16:41.037Z,3.13
2019-03-02T13:19:13.791Z,4.07
2019-03-02T13:21:58.516Z,3.07
2019-03-02T13:24:31.513Z,2.20
2019-03-02T13:27:04.081Z,2.60
2019-03-02T13:29:53.445Z,4.00
2019-03-02T13:32:37.019Z,6.80
2019-03-02T13:35:14.494Z,4.40
2019-03-02T13:37:59.311Z,5.57
2019-03-02T13:40:33.653Z,5.57
2019-03-02T13:43:06.592Z,5.97
2019-03-02T13:45:42.638Z,5.10
2019-03-02T13:48:27.541Z,5.00
2019-03-02T13:51:15.776Z,6.17
2019-03-02T13:54:03.006Z,9.77
2019-03-02T13:56:49.647Z,5.73
2019-03-02T13:59:30.952Z,8.30
2019-03-02T14:02:08.960Z,6.23
2019-03-02T14:04:39.109Z,6.90
2019-03-02T14:07:12.343Z,8.10
2019-03-02T14:09:42.412Z,6.70
2019-03-02T14:12:28.470Z,6.43
2019-03-02T14:15:13.269Z,7.67
2019-03-02T14:17:48.030Z,7.07
2019-03-02T14:20:24.376Z,6.87
2019-03-02T14:23:00.972Z,6.30
2019-03-02T14:25:33.701Z,6.30
2019-03-02T14:28:03.774Z,6.30
2019-03-02T14:30:42.800Z,6.23
2019-03-02T14:33:15.277Z,6.00
2019-03-02T14:35:45.348Z,5.90
2019-03-02T14:38:31.149Z,7.23
2019-03-02T14:41:01.209Z,6.50
2019-03-02T14:43:40.132Z,7.00
2019-03-02T14:46:23.269Z,6.33
2019-03-02T14:48:53.665Z,7.10
2019-03-02T14:51:26.813Z,7.60
2019-03-02T14:53:59.550Z,7.03
2019-03-02T14:56:48.409Z,7.73
2019-03-02T14:59:17.576Z,7.37
2019-03-02T15:01:50.546Z,6.50
2019-03-02T15:04:23.138Z,6.30
2019-03-02T15:07:09.184Z,5.90
2019-03-02T15:09:49.580Z,6.30
2019-03-02T15:12:20.086Z,9.10
2019-03-02T15:14:50.176Z,6.63
2019-03-02T15:17:29.277Z,5.80
2019-03-02T15:19:59.369Z,14.97
2019-03-02T15:22:32.065Z,8.67
2019-03-02T15:25:10.936Z,6.80
2019-03-02T15:27:43.500Z,6.70
2019-03-02T15:30:29.837Z,5.60
2019-03-02T15:32:59.895Z,5.00
2019-03-02T15:35:33.599Z,5.10
2019-03-02T15:38:13.368Z,5.13
2019-03-02T15:40:45.865Z,4.73
2019-03-02T15:43:21.414Z,5.13
2019-03-02T15:46:00.193Z,4.33
2019-03-02T15:48:30.290Z,4.67
2019-03-02T15:51:06.445Z,4.47
2019-03-02T15:53:39.392Z,5.30
2019-03-02T15:56:12.484Z,5.73
2019-03-02T15:58:48.487Z,7.53
2019-03-02T16:01:27.279Z,5.43
2019-03-02T16:04:17.417Z,9.17
2019-03-02T16:07:03.200Z,6.73
2019-03-02T16:09:49.209Z,5.00
2019-03-02T16:12:22.224Z,5.07
2019-03-02T16:15:08.848Z,6.30
2019-03-02T16:17:39.971Z,6.13
2019-03-02T16:20:18.798Z,6.20
2019-03-02T16:22:57.426Z,7.27
2019-03-02T16:25:39.908Z,7.17
2019-03-02T16:28:11.124Z,8.03
2019-03-02T16:30:53.230Z,8.23
2019-03-02T16:33:23.384Z,7.70
2019-03-02T16:35:57.471Z,7.97
2019-03-02T16:38:37.455Z,7.47
2019-03-02T16:41:13.537Z,8.03
2019-03-02T16:43:43.694Z,9.83
2019-03-02T16:46:22.566Z,9.77
2019-03-02T16:48:55.618Z,10.60
2019-03-02T16:51:25.985Z,10.10
2019-03-02T16:54:09.369Z,10.90
2019-03-02T16:56:42.250Z,11.23
2019-03-02T16:59:18.518Z,12.20
2019-03-02T17:01:52.524Z,11.33
2019-03-02T17:04:22.680Z,12.97
2019-03-02T17:07:04.452Z,11.73
2019-03-02T17:09:47.563Z,11.07
2019-03-02T17:12:23.865Z,11.00
2019-03-02T17:15:11.932Z,10.40
2019-03-02T17:17:54.186Z,13.23
2019-03-02T17:20:38.960Z,10.07
2019-03-02T17:23:22.118Z,9.77
2019-03-02T17:25:45.604Z,10.10
2019-03-02T17:28:24.621Z,8.63
2019-03-02T17:30:58.113Z,7.67
2019-03-02T17:33:32.453Z,8.37
2019-03-02T17:36:08.266Z,8.73
2019-03-02T17:38:38.313Z,8.97
2019-03-02T17:41:23.606Z,8.40
2019-03-02T17:44:08.771Z,9.60
2019-03-02T17:46:41.885Z,11.88
2019-03-02T17:49:17.593Z,9.87
2019-03-02T17:51:47.670Z,9.70
2019-03-02T17:54:17.731Z,8.90
2019-03-02T17:56:59.493Z,9.43
2019-03-02T17:59:32.281Z,10.33
2019-03-02T18:02:08.851Z,9.53
2019-03-02T18:04:39.218Z,9.13
2019-03-02T18:07:08.707Z,8.97
2019-03-02T18:09:57.111Z,9.33
2019-03-02T18:12:30.179Z,9.23
2019-03-02T18:15:06.307Z,9.27
2019-03-02T18:17:55.579Z,8.93
2019-03-02T18:20:23.420Z,9.63
2019-03-02T18:22:51.876Z,9.50
2019-03-02T18:25:20.296Z,9.30
2019-03-02T18:27:48.720Z,9.70
2019-03-02T18:30:21.407Z,10.10
2019-03-02T18:32:51.523Z,10.60
2019-03-02T18:35:20.210Z,10.83
2019-03-02T18:37:48.630Z,10.80
2019-03-02T18:40:17.213Z,10.83
2019-03-02T18:42:45.653Z,11.33
2019-03-02T18:45:14.695Z,11.03
2019-03-02T18:47:43.184Z,10.80
2019-03-02T18:50:32.498Z,10.30
2019-03-02T18:53:02.248Z,11.07
2019-03-02T18:55:31.016Z,10.98
2019-03-02T18:57:59.673Z,12.87
2019-03-02T19:00:29.812Z,12.30
2019-03-02T19:02:58.245Z,12.83
2019-03-02T19:05:30.944Z,11.67
2019-03-02T19:08:00.504Z,13.03
2019-03-02T19:10:29.276Z,12.63
2019-03-02T19:12:57.781Z,13.53
2019-03-02T19:15:28.212Z,13.20
2019-03-02T19:18:00.310Z,14.23
2019-03-02T19:20:28.880Z,13.87
2019-03-02T19:22:57.313Z,13.73
2019-03-02T19:25:25.723Z,14.53
2019-03-02T19:27:54.245Z,14.13
2019-03-02T19:30:22.722Z,26.27
2019-03-02T19:32:51.142Z,24.50
2019-03-02T19:35:19.609Z,23.07
2019-03-02T19:37:48.072Z,64.63
2019-03-02T19:40:25.401Z,17.97
2019-03-02T19:42:53.893Z,17.50
2019-03-02T19:45:22.289Z,16.83
2019-03-02T19:47:50.734Z,17.17
2019-03-02T19:50:20.595Z,17.67
2019-03-02T19:52:49.030Z,17.93
2019-03-02T19:55:17.779Z,17.87
2019-03-02T19:57:46.569Z,18.70
2019-03-02T20:00:21.110Z,19.57
2019-03-02T20:02:49.708Z,19.40
2019-03-02T20:05:18.214Z,19.27
2019-03-02T20:07:46.641Z,21.10
2019-03-02T20:10:16.913Z,18.53
2019-03-02T20:12:49.615Z,19.13
2019-03-02T20:15:23.887Z,19.77
2019-03-02T20:17:52.463Z,21.23
2019-03-02T20:20:21.046Z,20.83
2019-03-02T20:22:49.531Z,21.27
2019-03-02T20:25:19.078Z,21.80
2019-03-02T20:27:47.625Z,22.90
2019-03-02T20:30:19.565Z,22.37
2019-03-02T20:32:48.182Z,23.03
2019-03-02T20:35:18.821Z,22.67
2019-03-02T20:37:47.414Z,23.03
2019-03-02T20:40:24.042Z,23.17
2019-03-02T20:42:52.518Z,23.67
2019-03-02T20:45:21.157Z,24.63
2019-03-02T20:47:49.585Z,24.70
2019-03-02T20:50:20.113Z,24.23
2019-03-02T20:52:48.548Z,23.80
2019-03-02T20:55:17.908Z,25.10
2019-03-02T20:57:46.971Z,24.37
2019-03-02T21:00:35.664Z,23.40
2019-03-02T21:03:04.334Z,24.40
2019-03-02T21:05:33.076Z,25.80
2019-03-02T21:08:01.517Z,25.43
2019-03-02T21:10:31.947Z,25.60
2019-03-02T21:13:00.428Z,25.63
2019-03-02T21:15:37.664Z,26.27
2019-03-02T21:18:06.536Z,24.83
2019-03-02T21:20:36.577Z,24.97
2019-03-02T21:23:05.386Z,25.30
2019-03-02T21:25:33.889Z,26.07
2019-03-02T21:28:02.300Z,26.50
2019-03-02T21:30:30.732Z,27.40
2019-03-02T21:32:59.192Z,26.47
2019-03-02T21:35:27.617Z,26.83
2019-03-02T21:37:56.098Z,27.50
2019-03-02T21:40:29.510Z,28.02
2019-03-02T21:42:57.920Z,27.40
2019-03-02T21:45:27.477Z,26.93
2019-03-02T21:47:55.989Z,27.40
2019-03-02T21:50:30.156Z,27.07
2019-03-02T21:52:58.560Z,27.17
2019-03-02T21:55:27.036Z,25.70
2019-03-02T21:57:55.466Z,26.43
2019-03-02T22:00:27.934Z,26.27
2019-03-02T22:02:56.523Z,26.13
2019-03-02T22:05:24.932Z,26.50
2019-03-02T22:07:53.367Z,26.80
2019-03-02T22:10:24.792Z,26.97
2019-03-02T22:12:55.964Z,26.83
2019-03-02T22:15:24.441Z,26.37
2019-03-02T22:17:54.336Z,27.95
2019-03-02T22:20:22.849Z,27.37
2019-03-02T22:22:51.284Z,27.00
2019-03-02T22:25:21.339Z,28.43
2019-03-02T22:27:49.809Z,26.40
2019-03-02T22:30:20.279Z,28.27
2019-03-02T22:32:48.687Z,28.10
2019-03-02T22:35:17.188Z,27.37
2019-03-02T22:37:45.596Z,27.43
2019-03-02T22:40:27.397Z,27.77
2019-03-02T22:42:56.040Z,27.73
2019-03-02T22:45:24.463Z,27.60
2019-03-02T22:47:52.904Z,28.60
2019-03-02T22:50:29.693Z,27.47
2019-03-02T22:52:58.089Z,28.77
2019-03-02T22:55:26.501Z,27.97
2019-03-02T22:57:54.947Z,27.43
2019-03-02T23:00:29.360Z,26.83
2019-03-02T23:02:56.862Z,27.50
2019-03-02T23:05:25.368Z,28.40
2019-03-02T23:07:53.864Z,27.93
2019-03-02T23:10:22.411Z,28.70
2019-03-02T23:12:50.923Z,27.87
2019-03-02T23:15:22.774Z,28.10
2019-03-02T23:17:51.184Z,27.83
2019-03-02T23:20:19.618Z,30.60
2019-03-02T23:22:48.056Z,32.30
2019-03-02T23:25:16.997Z,31.03
2019-03-02T23:27:45.441Z,31.43
2019-03-02T23:30:17.852Z,31.13
2019-03-02T23:32:46.283Z,31.93
2019-03-02T23:35:15.172Z,31.80
2019-03-02T23:37:43.582Z,31.17
2019-03-02T23:40:16.248Z,31.93
2019-03-02T23:42:44.681Z,31.30
2019-03-02T23:45:16.624Z,33.70
2019-03-02T23:47:45.163Z,32.40
2019-03-02T23:50:14.403Z,32.50
2019-03-02T23:52:42.832Z,32.87
2019-03-02T23:55:13.601Z,32.87
2019-03-02T23:57:42.099Z,34.00
